sensor_id;sensor_type;location;lat;lon;timestamp;P1;durP1;ratioP1;P2;durP2;ratioP2
44139;SDS011;29803;51.048;4.686;2023-10-08T00:01:19;8.18;;;2.90;;
44139;SDS011;29803;51.048;4.686;2023-10-08T00:03:51;12.15;;;3.30;;
44139;SDS011;29803;51.048;4.686;2023-10-08T00:06:28;9.18;;;3.55;;
44139;SDS011;29803;51.048;4.686;2023-10-08T00:08:58;7.25;;;3.00;;
44139;SDS011;29803;51.048;4.686;2023-10-08T00:11:30;8.02;;;2.92;;
44139;SDS011;29803;51.048;4.686;2023-10-08T00:14:00;7.90;;;2.95;;
44139;SDS011;29803;51.048;4.686;2023-10-08T00:16:31;12.20;;;3.40;;
44139;SDS011;29803;51.048;4.686;2023-10-08T00:19:03;11.23;;;3.15;;
44139;SDS011;29803;51.048;4.686;2023-10-08T00:21:38;9.32;;;2.88;;
44139;SDS011;29803;51.048;4.686;2023-10-08T00:24:09;8.00;;;3.40;;
44139;SDS011;29803;51.048;4.686;2023-10-08T00:26:40;8.05;;;2.97;;
44139;SDS011;29803;51.048;4.686;2023-10-08T00:29:11;8.18;;;3.33;;
44139;SDS011;29803;51.048;4.686;2023-10-08T00:31:51;6.40;;;3.10;;
44139;SDS011;29803;51.048;4.686;2023-10-08T00:34:22;9.93;;;3.45;;
44139;SDS011;29803;51.048;4.686;2023-10-08T00:36:55;8.50;;;3.28;;
44139;SDS011;29803;51.048;4.686;2023-10-08T00:39:25;8.23;;;2.72;;
44139;SDS011;29803;51.048;4.686;2023-10-08T00:41:57;7.90;;;3.00;;
44139;SDS011;29803;51.048;4.686;2023-10-08T00:44:28;8.27;;;3.10;;
44139;SDS011;29803;51.048;4.686;2023-10-08T00:47:00;8.80;;;3.08;;
44139;SDS011;29803;51.048;4.686;2023-10-08T00:49:31;9.55;;;3.25;;
44139;SDS011;29803;51.048;4.686;2023-10-08T00:52:03;6.80;;;3.03;;
44139;SDS011;29803;51.048;4.686;2023-10-08T00:54:53;9.65;;;3.28;;
44139;SDS011;29803;51.048;4.686;2023-10-08T00:57:25;8.52;;;3.22;;
44139;SDS011;29803;51.048;4.686;2023-10-08T00:59:59;8.75;;;3.00;;
44139;SDS011;29803;51.048;4.686;2023-10-08T01:02:30;7.43;;;3.03;;
44139;SDS011;29803;51.048;4.686;2023-10-08T01:05:18;10.80;;;3.55;;
44139;SDS011;29803;51.048;4.686;2023-10-08T01:07:54;6.38;;;2.60;;
44139;SDS011;29803;51.048;4.686;2023-10-08T01:10:27;5.78;;;2.60;;
44139;SDS011;29803;51.048;4.686;2023-10-08T01:12:58;13.10;;;3.08;;
44139;SDS011;29803;51.048;4.686;2023-10-08T01:15:46;8.30;;;3.35;;
44139;SDS011;29803;51.048;4.686;2023-10-08T01:18:22;9.15;;;3.05;;
44139;SDS011;29803;51.048;4.686;2023-10-08T01:21:02;10.30;;;2.83;;
44139;SDS011;29803;51.048;4.686;2023-10-08T01:23:45;8.68;;;3.72;;
44139;SDS011;29803;51.048;4.686;2023-10-08T01:26:19;7.82;;;3.33;;
44139;SDS011;29803;51.048;4.686;2023-10-08T01:28:52;12.80;;;3.72;;
44139;SDS011;29803;51.048;4.686;2023-10-08T01:31:25;8.02;;;3.33;;
44139;SDS011;29803;51.048;4.686;2023-10-08T01:33:56;13.93;;;3.47;;
44139;SDS011;29803;51.048;4.686;2023-10-08T01:36:27;11.13;;;3.80;;
44139;SDS011;29803;51.048;4.686;2023-10-08T01:38:58;10.35;;;3.17;;
44139;SDS011;29803;51.048;4.686;2023-10-08T01:41:31;8.63;;;3.35;;
44139;SDS011;29803;51.048;4.686;2023-10-08T01:44:02;10.48;;;4.00;;
44139;SDS011;29803;51.048;4.686;2023-10-08T01:46:36;15.52;;;3.55;;
44139;SDS011;29803;51.048;4.686;2023-10-08T01:49:07;11.18;;;3.00;;
44139;SDS011;29803;51.048;4.686;2023-10-08T01:51:43;8.30;;;3.40;;
44139;SDS011;29803;51.048;4.686;2023-10-08T01:54:16;8.43;;;3.08;;
44139;SDS011;29803;51.048;4.686;2023-10-08T01:56:51;10.13;;;3.45;;
44139;SDS011;29803;51.048;4.686;2023-10-08T01:59:22;11.45;;;3.00;;
44139;SDS011;29803;51.048;4.686;2023-10-08T02:01:54;8.60;;;3.30;;
44139;SDS011;29803;51.048;4.686;2023-10-08T02:04:27;8.27;;;3.25;;
44139;SDS011;29803;51.048;4.686;2023-10-08T02:06:57;10.25;;;3.10;;
44139;SDS011;29803;51.048;4.686;2023-10-08T02:09:30;11.05;;;3.63;;
44139;SDS011;29803;51.048;4.686;2023-10-08T02:12:03;6.70;;;3.28;;
44139;SDS011;29803;51.048;4.686;2023-10-08T02:14:34;7.57;;;3.17;;
44139;SDS011;29803;51.048;4.686;2023-10-08T02:17:05;7.82;;;3.20;;
44139;SDS011;29803;51.048;4.686;2023-10-08T02:19:36;9.95;;;3.13;;
44139;SDS011;29803;51.048;4.686;2023-10-08T02:22:07;13.93;;;3.35;;
44139;SDS011;29803;51.048;4.686;2023-10-08T02:24:41;12.38;;;3.72;;
44139;SDS011;29803;51.048;4.686;2023-10-08T02:27:13;10.10;;;3.50;;
44139;SDS011;29803;51.048;4.686;2023-10-08T02:29:45;6.95;;;3.50;;
44139;SDS011;29803;51.048;4.686;2023-10-08T02:32:15;7.43;;;2.97;;
44139;SDS011;29803;51.048;4.686;2023-10-08T02:34:46;8.70;;;3.60;;
44139;SDS011;29803;51.048;4.686;2023-10-08T02:37:17;8.77;;;3.20;;
44139;SDS011;29803;51.048;4.686;2023-10-08T02:39:49;8.00;;;3.20;;
44139;SDS011;29803;51.048;4.686;2023-10-08T02:42:20;11.48;;;3.53;;
44139;SDS011;29803;51.048;4.686;2023-10-08T02:44:52;9.23;;;4.13;;
44139;SDS011;29803;51.048;4.686;2023-10-08T02:47:23;11.55;;;3.15;;
44139;SDS011;29803;51.048;4.686;2023-10-08T02:49:54;7.10;;;3.33;;
44139;SDS011;29803;51.048;4.686;2023-10-08T02:52:25;10.00;;;3.40;;
44139;SDS011;29803;51.048;4.686;2023-10-08T02:54:56;9.88;;;3.75;;
44139;SDS011;29803;51.048;4.686;2023-10-08T02:57:26;9.45;;;3.53;;
44139;SDS011;29803;51.048;4.686;2023-10-08T03:00:01;7.93;;;3.70;;
44139;SDS011;29803;51.048;4.686;2023-10-08T03:02:35;12.43;;;3.23;;
44139;SDS011;29803;51.048;4.686;2023-10-08T03:05:09;9.48;;;3.42;;
44139;SDS011;29803;51.048;4.686;2023-10-08T03:07:43;8.80;;;3.15;;
44139;SDS011;29803;51.048;4.686;2023-10-08T03:10:14;10.60;;;3.53;;
44139;SDS011;29803;51.048;4.686;2023-10-08T03:12:52;10.95;;;3.55;;
44139;SDS011;29803;51.048;4.686;2023-10-08T03:15:23;10.38;;;3.47;;
44139;SDS011;29803;51.048;4.686;2023-10-08T03:18:01;10.27;;;3.80;;
44139;SDS011;29803;51.048;4.686;2023-10-08T03:20:40;6.95;;;3.25;;
44139;SDS011;29803;51.048;4.686;2023-10-08T03:23:13;6.55;;;3.40;;
44139;SDS011;29803;51.048;4.686;2023-10-08T03:26:03;13.50;;;3.63;;
44139;SDS011;29803;51.048;4.686;2023-10-08T03:28:40;13.10;;;3.30;;
44139;SDS011;29803;51.048;4.686;2023-10-08T03:31:11;7.03;;;3.47;;
44139;SDS011;29803;51.048;4.686;2023-10-08T03:33:46;8.70;;;3.63;;
44139;SDS011;29803;51.048;4.686;2023-10-08T03:36:22;10.20;;;3.60;;
44139;SDS011;29803;51.048;4.686;2023-10-08T03:39:00;7.85;;;3.58;;
44139;SDS011;29803;51.048;4.686;2023-10-08T03:41:41;8.15;;;4.07;;
44139;SDS011;29803;51.048;4.686;2023-10-08T03:44:12;7.05;;;3.25;;
44139;SDS011;29803;51.048;4.686;2023-10-08T03:46:43;13.13;;;3.67;;
44139;SDS011;29803;51.048;4.686;2023-10-08T03:49:14;8.30;;;3.33;;
44139;SDS011;29803;51.048;4.686;2023-10-08T03:51:51;9.65;;;3.95;;
44139;SDS011;29803;51.048;4.686;2023-10-08T03:54:23;6.68;;;3.08;;
44139;SDS011;29803;51.048;4.686;2023-10-08T03:57:00;7.30;;;3.55;;
44139;SDS011;29803;51.048;4.686;2023-10-08T03:59:31;11.40;;;3.55;;
44139;SDS011;29803;51.048;4.686;2023-10-08T04:02:01;7.22;;;3.40;;
44139;SDS011;29803;51.048;4.686;2023-10-08T04:04:52;7.88;;;3.20;;
44139;SDS011;29803;51.048;4.686;2023-10-08T04:07:25;8.38;;;3.40;;
44139;SDS011;29803;51.048;4.686;2023-10-08T04:10:03;10.90;;;4.05;;
44139;SDS011;29803;51.048;4.686;2023-10-08T04:12:39;9.60;;;3.55;;
44139;SDS011;29803;51.048;4.686;2023-10-08T04:15:14;9.52;;;3.28;;
44139;SDS011;29803;51.048;4.686;2023-10-08T04:17:46;12.48;;;3.80;;
44139;SDS011;29803;51.048;4.686;2023-10-08T04:20:21;8.85;;;3.53;;
44139;SDS011;29803;51.048;4.686;2023-10-08T04:23:04;7.53;;;3.47;;
44139;SDS011;29803;51.048;4.686;2023-10-08T04:25:36;10.50;;;4.10;;
44139;SDS011;29803;51.048;4.686;2023-10-08T04:28:06;9.95;;;3.25;;
44139;SDS011;29803;51.048;4.686;2023-10-08T04:30:36;6.30;;;3.42;;
44139;SDS011;29803;51.048;4.686;2023-10-08T04:33:08;8.30;;;4.18;;
44139;SDS011;29803;51.048;4.686;2023-10-08T04:35:43;8.93;;;3.75;;
44139;SDS011;29803;51.048;4.686;2023-10-08T04:38:25;10.98;;;3.90;;
44139;SDS011;29803;51.048;4.686;2023-10-08T04:40:58;10.50;;;3.65;;
44139;SDS011;29803;51.048;4.686;2023-10-08T04:43:31;9.10;;;3.55;;
44139;SDS011;29803;51.048;4.686;2023-10-08T04:46:02;8.90;;;4.03;;
44139;SDS011;29803;51.048;4.686;2023-10-08T04:48:51;10.63;;;4.15;;
44139;SDS011;29803;51.048;4.686;2023-10-08T04:51:22;9.25;;;3.53;;
44139;SDS011;29803;51.048;4.686;2023-10-08T04:53:53;8.18;;;4.18;;
44139;SDS011;29803;51.048;4.686;2023-10-08T04:56:25;8.57;;;4.05;;
44139;SDS011;29803;51.048;4.686;2023-10-08T04:58:58;9.57;;;3.50;;
44139;SDS011;29803;51.048;4.686;2023-10-08T05:01:29;9.00;;;3.63;;
44139;SDS011;29803;51.048;4.686;2023-10-08T05:04:08;8.88;;;4.22;;
44139;SDS011;29803;51.048;4.686;2023-10-08T05:06:53;8.63;;;3.90;;
44139;SDS011;29803;51.048;4.686;2023-10-08T05:09:34;15.60;;;4.55;;
44139;SDS011;29803;51.048;4.686;2023-10-08T05:12:15;7.60;;;3.95;;
44139;SDS011;29803;51.048;4.686;2023-10-08T05:15:05;8.57;;;3.97;;
44139;SDS011;29803;51.048;4.686;2023-10-08T05:17:44;8.60;;;4.05;;
44139;SDS011;29803;51.048;4.686;2023-10-08T05:20:20;8.73;;;3.70;;
44139;SDS011;29803;51.048;4.686;2023-10-08T05:23:12;9.80;;;4.13;;
44139;SDS011;29803;51.048;4.686;2023-10-08T05:26:02;9.65;;;3.67;;
44139;SDS011;29803;51.048;4.686;2023-10-08T05:28:36;8.57;;;3.70;;
44139;SDS011;29803;51.048;4.686;2023-10-08T05:31:31;9.93;;;3.90;;
44139;SDS011;29803;51.048;4.686;2023-10-08T05:34:16;9.15;;;4.13;;
44139;SDS011;29803;51.048;4.686;2023-10-08T05:36:53;10.18;;;4.15;;
44139;SDS011;29803;51.048;4.686;2023-10-08T05:39:45;8.50;;;4.22;;
44139;SDS011;29803;51.048;4.686;2023-10-08T05:42:25;10.35;;;4.13;;
44139;SDS011;29803;51.048;4.686;2023-10-08T05:44:57;10.02;;;4.63;;
44139;SDS011;29803;51.048;4.686;2023-10-08T05:47:55;13.90;;;4.38;;
44139;SDS011;29803;51.048;4.686;2023-10-08T05:50:45;10.30;;;4.20;;
44139;SDS011;29803;51.048;4.686;2023-10-08T05:53:28;10.43;;;4.32;;
44139;SDS011;29803;51.048;4.686;2023-10-08T06:01:48;7.47;;;3.85;;
44139;SDS011;29803;51.048;4.686;2023-10-08T06:04:28;10.80;;;3.92;;
44139;SDS011;29803;51.048;4.686;2023-10-08T06:07:23;12.68;;;4.82;;
44139;SDS011;29803;51.048;4.686;2023-10-08T06:10:03;11.82;;;4.07;;
44139;SDS011;29803;51.048;4.686;2023-10-08T06:12:43;10.35;;;4.53;;
44139;SDS011;29803;51.048;4.686;2023-10-08T06:15:20;9.32;;;4.13;;
44139;SDS011;29803;51.048;4.686;2023-10-08T06:18:07;11.60;;;4.50;;
44139;SDS011;29803;51.048;4.686;2023-10-08T06:20:38;14.50;;;4.63;;
44139;SDS011;29803;51.048;4.686;2023-10-08T06:23:13;10.25;;;4.97;;
44139;SDS011;29803;51.048;4.686;2023-10-08T06:25:49;10.48;;;4.47;;
44139;SDS011;29803;51.048;4.686;2023-10-08T06:28:28;14.35;;;5.18;;
44139;SDS011;29803;51.048;4.686;2023-10-08T06:30:59;9.93;;;4.35;;
44139;SDS011;29803;51.048;4.686;2023-10-08T06:33:29;18.48;;;5.75;;
44139;SDS011;29803;51.048;4.686;2023-10-08T06:36:03;10.75;;;4.20;;
44139;SDS011;29803;51.048;4.686;2023-10-08T06:38:43;11.13;;;4.72;;
44139;SDS011;29803;51.048;4.686;2023-10-08T06:43:49;8.55;;;4.60;;
44139;SDS011;29803;51.048;4.686;2023-10-08T06:46:32;13.93;;;4.60;;
44139;SDS011;29803;51.048;4.686;2023-10-08T06:49:03;14.88;;;5.28;;
44139;SDS011;29803;51.048;4.686;2023-10-08T06:51:41;11.70;;;4.47;;
44139;SDS011;29803;51.048;4.686;2023-10-08T06:54:13;15.95;;;4.60;;
44139;SDS011;29803;51.048;4.686;2023-10-08T06:56:47;12.18;;;4.30;;
44139;SDS011;29803;51.048;4.686;2023-10-08T06:59:21;11.15;;;4.88;;
44139;SDS011;29803;51.048;4.686;2023-10-08T07:01:52;11.32;;;4.82;;
44139;SDS011;29803;51.048;4.686;2023-10-08T07:04:23;17.80;;;4.78;;
44139;SDS011;29803;51.048;4.686;2023-10-08T07:06:53;10.85;;;4.90;;
44139;SDS011;29803;51.048;4.686;2023-10-08T07:09:24;11.75;;;4.97;;
44139;SDS011;29803;51.048;4.686;2023-10-08T07:12:00;10.77;;;5.00;;
44139;SDS011;29803;51.048;4.686;2023-10-08T07:14:35;12.45;;;4.68;;
44139;SDS011;29803;51.048;4.686;2023-10-08T07:17:06;10.75;;;5.28;;
44139;SDS011;29803;51.048;4.686;2023-10-08T07:19:38;10.50;;;4.45;;
44139;SDS011;29803;51.048;4.686;2023-10-08T07:22:10;13.02;;;5.35;;
44139;SDS011;29803;51.048;4.686;2023-10-08T07:24:51;12.20;;;5.57;;
44139;SDS011;29803;51.048;4.686;2023-10-08T07:27:22;13.85;;;5.18;;
44139;SDS011;29803;51.048;4.686;2023-10-08T07:30:00;14.75;;;5.22;;
44139;SDS011;29803;51.048;4.686;2023-10-08T07:32:40;16.55;;;5.22;;
44139;SDS011;29803;51.048;4.686;2023-10-08T07:35:10;9.90;;;5.05;;
44139;SDS011;29803;51.048;4.686;2023-10-08T07:37:54;11.20;;;5.13;;
44139;SDS011;29803;51.048;4.686;2023-10-08T07:40:27;12.60;;;5.88;;
44139;SDS011;29803;51.048;4.686;2023-10-08T07:42:59;13.07;;;4.70;;
44139;SDS011;29803;51.048;4.686;2023-10-08T07:45:38;14.20;;;4.97;;
44139;SDS011;29803;51.048;4.686;2023-10-08T07:48:09;11.38;;;5.68;;
44139;SDS011;29803;51.048;4.686;2023-10-08T07:50:41;14.85;;;5.00;;
44139;SDS011;29803;51.048;4.686;2023-10-08T07:53:15;10.48;;;5.38;;
44139;SDS011;29803;51.048;4.686;2023-10-08T07:55:48;17.45;;;5.50;;
44139;SDS011;29803;51.048;4.686;2023-10-08T07:58:18;12.25;;;5.25;;
44139;SDS011;29803;51.048;4.686;2023-10-08T08:00:50;14.23;;;5.30;;
44139;SDS011;29803;51.048;4.686;2023-10-08T08:03:21;9.25;;;4.80;;
44139;SDS011;29803;51.048;4.686;2023-10-08T08:05:52;13.60;;;5.28;;
44139;SDS011;29803;51.048;4.686;2023-10-08T08:08:22;15.90;;;5.32;;
44139;SDS011;29803;51.048;4.686;2023-10-08T08:10:57;15.52;;;5.10;;
44139;SDS011;29803;51.048;4.686;2023-10-08T08:13:33;13.63;;;5.85;;
44139;SDS011;29803;51.048;4.686;2023-10-08T08:16:04;10.35;;;5.13;;
44139;SDS011;29803;51.048;4.686;2023-10-08T08:18:51;11.85;;;4.93;;
44139;SDS011;29803;51.048;4.686;2023-10-08T08:21:27;15.93;;;5.15;;
44139;SDS011;29803;51.048;4.686;2023-10-08T08:24:00;11.77;;;5.28;;
44139;SDS011;29803;51.048;4.686;2023-10-08T08:26:37;13.20;;;5.38;;
44139;SDS011;29803;51.048;4.686;2023-10-08T08:29:10;12.27;;;5.55;;
44139;SDS011;29803;51.048;4.686;2023-10-08T08:31:45;13.52;;;5.63;;
44139;SDS011;29803;51.048;4.686;2023-10-08T08:34:16;15.48;;;5.47;;
44139;SDS011;29803;51.048;4.686;2023-10-08T08:36:49;14.68;;;5.65;;
44139;SDS011;29803;51.048;4.686;2023-10-08T08:39:20;17.67;;;5.65;;
44139;SDS011;29803;51.048;4.686;2023-10-08T08:42:03;15.20;;;5.88;;
44139;SDS011;29803;51.048;4.686;2023-10-08T08:44:35;14.18;;;5.68;;
44139;SDS011;29803;51.048;4.686;2023-10-08T08:47:15;18.80;;;6.05;;
44139;SDS011;29803;51.048;4.686;2023-10-08T08:49:47;18.38;;;6.10;;
44139;SDS011;29803;51.048;4.686;2023-10-08T08:52:18;22.90;;;6.28;;
44139;SDS011;29803;51.048;4.686;2023-10-08T08:54:49;17.73;;;5.75;;
44139;SDS011;29803;51.048;4.686;2023-10-08T08:57:19;18.88;;;5.65;;
44139;SDS011;29803;51.048;4.686;2023-10-08T08:59:52;19.48;;;6.13;;
44139;SDS011;29803;51.048;4.686;2023-10-08T09:02:24;13.55;;;6.47;;
44139;SDS011;29803;51.048;4.686;2023-10-08T09:04:55;22.60;;;6.07;;
44139;SDS011;29803;51.048;4.686;2023-10-08T09:07:25;22.08;;;6.30;;
44139;SDS011;29803;51.048;4.686;2023-10-08T09:09:56;12.98;;;5.88;;
44139;SDS011;29803;51.048;4.686;2023-10-08T09:12:27;15.85;;;5.95;;
44139;SDS011;29803;51.048;4.686;2023-10-08T09:15:02;18.02;;;6.63;;
44139;SDS011;29803;51.048;4.686;2023-10-08T09:17:34;15.05;;;5.72;;
44139;SDS011;29803;51.048;4.686;2023-10-08T09:20:05;16.92;;;5.80;;
44139;SDS011;29803;51.048;4.686;2023-10-08T09:22:37;14.48;;;6.10;;
44139;SDS011;29803;51.048;4.686;2023-10-08T09:25:07;18.63;;;6.05;;
44139;SDS011;29803;51.048;4.686;2023-10-08T09:27:38;15.68;;;5.80;;
44139;SDS011;29803;51.048;4.686;2023-10-08T09:30:16;21.27;;;6.35;;
44139;SDS011;29803;51.048;4.686;2023-10-08T09:32:49;17.15;;;6.07;;
44139;SDS011;29803;51.048;4.686;2023-10-08T09:35:19;15.95;;;5.55;;
44139;SDS011;29803;51.048;4.686;2023-10-08T09:37:52;18.17;;;6.15;;
44139;SDS011;29803;51.048;4.686;2023-10-08T09:40:24;18.38;;;5.95;;
44139;SDS011;29803;51.048;4.686;2023-10-08T09:42:55;11.07;;;5.60;;
44139;SDS011;29803;51.048;4.686;2023-10-08T09:45:26;18.85;;;6.28;;
44139;SDS011;29803;51.048;4.686;2023-10-08T09:47:59;13.25;;;5.95;;
44139;SDS011;29803;51.048;4.686;2023-10-08T09:50:35;18.88;;;5.78;;
44139;SDS011;29803;51.048;4.686;2023-10-08T09:53:09;17.27;;;6.60;;
44139;SDS011;29803;51.048;4.686;2023-10-08T09:55:49;19.02;;;6.72;;
44139;SDS011;29803;51.048;4.686;2023-10-08T09:58:25;18.45;;;6.35;;
44139;SDS011;29803;51.048;4.686;2023-10-08T10:00:57;15.52;;;5.47;;
44139;SDS011;29803;51.048;4.686;2023-10-08T10:03:28;20.25;;;6.93;;
44139;SDS011;29803;51.048;4.686;2023-10-08T10:06:00;16.00;;;6.63;;
44139;SDS011;29803;51.048;4.686;2023-10-08T10:08:31;16.98;;;6.20;;
44139;SDS011;29803;51.048;4.686;2023-10-08T10:11:05;16.55;;;6.82;;
44139;SDS011;29803;51.048;4.686;2023-10-08T10:13:38;17.65;;;6.93;;
44139;SDS011;29803;51.048;4.686;2023-10-08T10:16:11;20.05;;;7.03;;
44139;SDS011;29803;51.048;4.686;2023-10-08T10:18:43;19.48;;;6.45;;
44139;SDS011;29803;51.048;4.686;2023-10-08T10:23:48;22.52;;;7.53;;
44139;SDS011;29803;51.048;4.686;2023-10-08T10:26:29;12.52;;;5.70;;
44139;SDS011;29803;51.048;4.686;2023-10-08T10:31:41;17.30;;;6.57;;
44139;SDS011;29803;51.048;4.686;2023-10-08T10:34:18;24.50;;;7.63;;
44139;SDS011;29803;51.048;4.686;2023-10-08T10:36:50;20.77;;;6.90;;
44139;SDS011;29803;51.048;4.686;2023-10-08T10:39:26;18.00;;;6.45;;
44139;SDS011;29803;51.048;4.686;2023-10-08T10:41:58;18.40;;;7.13;;
44139;SDS011;29803;51.048;4.686;2023-10-08T10:44:34;19.73;;;6.43;;
44139;SDS011;29803;51.048;4.686;2023-10-08T10:47:11;20.48;;;7.13;;
44139;SDS011;29803;51.048;4.686;2023-10-08T10:49:48;15.27;;;6.10;;
44139;SDS011;29803;51.048;4.686;2023-10-08T10:52:22;22.45;;;7.25;;
44139;SDS011;29803;51.048;4.686;2023-10-08T10:55:02;14.98;;;6.53;;
44139;SDS011;29803;51.048;4.686;2023-10-08T10:57:46;19.27;;;6.30;;
44139;SDS011;29803;51.048;4.686;2023-10-08T11:00:26;19.45;;;7.00;;
44139;SDS011;29803;51.048;4.686;2023-10-08T11:03:17;21.35;;;7.53;;
44139;SDS011;29803;51.048;4.686;2023-10-08T11:05:49;19.88;;;6.68;;
44139;SDS011;29803;51.048;4.686;2023-10-08T11:08:25;18.45;;;6.15;;
44139;SDS011;29803;51.048;4.686;2023-10-08T11:11:04;13.57;;;5.82;;
44139;SDS011;29803;51.048;4.686;2023-10-08T11:13:37;13.82;;;6.43;;
44139;SDS011;29803;51.048;4.686;2023-10-08T11:16:09;23.52;;;7.10;;
44139;SDS011;29803;51.048;4.686;2023-10-08T11:18:43;16.05;;;6.28;;
44139;SDS011;29803;51.048;4.686;2023-10-08T11:21:17;17.55;;;6.25;;
44139;SDS011;29803;51.048;4.686;2023-10-08T11:23:52;15.90;;;6.22;;
44139;SDS011;29803;51.048;4.686;2023-10-08T11:26:23;16.70;;;6.18;;
44139;SDS011;29803;51.048;4.686;2023-10-08T11:29:05;18.98;;;6.55;;
44139;SDS011;29803;51.048;4.686;2023-10-08T11:31:44;15.27;;;5.60;;
44139;SDS011;29803;51.048;4.686;2023-10-08T11:34:15;24.10;;;6.43;;
44139;SDS011;29803;51.048;4.686;2023-10-08T11:36:45;25.25;;;6.95;;
44139;SDS011;29803;51.048;4.686;2023-10-08T11:39:23;21.73;;;6.18;;
44139;SDS011;29803;51.048;4.686;2023-10-08T11:41:55;19.20;;;6.13;;
44139;SDS011;29803;51.048;4.686;2023-10-08T11:44:27;20.33;;;6.70;;
44139;SDS011;29803;51.048;4.686;2023-10-08T11:47:00;20.95;;;6.97;;
44139;SDS011;29803;51.048;4.686;2023-10-08T11:49:35;15.75;;;6.03;;
44139;SDS011;29803;51.048;4.686;2023-10-08T11:52:06;21.75;;;6.40;;
44139;SDS011;29803;51.048;4.686;2023-10-08T11:54:37;15.48;;;6.07;;
44139;SDS011;29803;51.048;4.686;2023-10-08T11:57:12;17.65;;;6.05;;
44139;SDS011;29803;51.048;4.686;2023-10-08T11:59:43;20.88;;;6.22;;
44139;SDS011;29803;51.048;4.686;2023-10-08T12:02:14;18.52;;;7.40;;
44139;SDS011;29803;51.048;4.686;2023-10-08T12:04:46;19.17;;;6.20;;
44139;SDS011;29803;51.048;4.686;2023-10-08T12:07:17;22.00;;;6.63;;
44139;SDS011;29803;51.048;4.686;2023-10-08T12:09:48;15.60;;;6.00;;
44139;SDS011;29803;51.048;4.686;2023-10-08T12:12:18;21.20;;;6.00;;
44139;SDS011;29803;51.048;4.686;2023-10-08T12:14:53;20.02;;;6.65;;
44139;SDS011;29803;51.048;4.686;2023-10-08T12:17:24;16.45;;;5.88;;
44139;SDS011;29803;51.048;4.686;2023-10-08T12:20:07;16.60;;;6.75;;
44139;SDS011;29803;51.048;4.686;2023-10-08T12:22:52;23.13;;;7.00;;
44139;SDS011;29803;51.048;4.686;2023-10-08T12:25:23;10.73;;;5.30;;
44139;SDS011;29803;51.048;4.686;2023-10-08T12:27:53;17.63;;;5.95;;
44139;SDS011;29803;51.048;4.686;2023-10-08T12:30:24;19.25;;;6.10;;
44139;SDS011;29803;51.048;4.686;2023-10-08T12:33:00;15.15;;;6.22;;
44139;SDS011;29803;51.048;4.686;2023-10-08T12:35:31;20.98;;;6.68;;
44139;SDS011;29803;51.048;4.686;2023-10-08T12:38:02;18.90;;;6.40;;
44139;SDS011;29803;51.048;4.686;2023-10-08T12:40:35;19.77;;;5.70;;
44139;SDS011;29803;51.048;4.686;2023-10-08T12:43:17;23.98;;;7.00;;
44139;SDS011;29803;51.048;4.686;2023-10-08T12:45:49;14.45;;;5.88;;
44139;SDS011;29803;51.048;4.686;2023-10-08T12:48:27;18.50;;;6.65;;
44139;SDS011;29803;51.048;4.686;2023-10-08T12:50:58;19.23;;;6.53;;
44139;SDS011;29803;51.048;4.686;2023-10-08T12:53:28;13.52;;;5.85;;
44139;SDS011;29803;51.048;4.686;2023-10-08T12:56:04;12.52;;;5.65;;
44139;SDS011;29803;51.048;4.686;2023-10-08T12:58:36;18.40;;;6.68;;
44139;SDS011;29803;51.048;4.686;2023-10-08T13:01:15;20.20;;;5.88;;
44139;SDS011;29803;51.048;4.686;2023-10-08T13:03:47;20.40;;;5.95;;
44139;SDS011;29803;51.048;4.686;2023-10-08T13:06:18;17.48;;;6.72;;
44139;SDS011;29803;51.048;4.686;2023-10-08T13:08:59;15.80;;;5.82;;
44139;SDS011;29803;51.048;4.686;2023-10-08T13:11:29;12.27;;;5.40;;
44139;SDS011;29803;51.048;4.686;2023-10-08T13:14:04;15.07;;;6.43;;
44139;SDS011;29803;51.048;4.686;2023-10-08T13:16:35;16.65;;;5.88;;
44139;SDS011;29803;51.048;4.686;2023-10-08T13:19:07;14.00;;;5.95;;
44139;SDS011;29803;51.048;4.686;2023-10-08T13:21:38;13.18;;;5.47;;
44139;SDS011;29803;51.048;4.686;2023-10-08T13:24:09;16.02;;;6.18;;
44139;SDS011;29803;51.048;4.686;2023-10-08T13:26:40;16.38;;;6.40;;
44139;SDS011;29803;51.048;4.686;2023-10-08T13:29:12;21.75;;;6.80;;
44139;SDS011;29803;51.048;4.686;2023-10-08T13:31:44;14.55;;;5.28;;
44139;SDS011;29803;51.048;4.686;2023-10-08T13:34:16;13.70;;;5.72;;
44139;SDS011;29803;51.048;4.686;2023-10-08T13:36:46;18.30;;;7.13;;
44139;SDS011;29803;51.048;4.686;2023-10-08T13:39:19;12.98;;;5.93;;
44139;SDS011;29803;51.048;4.686;2023-10-08T13:41:49;17.58;;;6.68;;
44139;SDS011;29803;51.048;4.686;2023-10-08T13:44:22;15.50;;;6.30;;
44139;SDS011;29803;51.048;4.686;2023-10-08T13:46:59;16.70;;;6.20;;
44139;SDS011;29803;51.048;4.686;2023-10-08T13:49:30;16.20;;;6.68;;
44139;SDS011;29803;51.048;4.686;2023-10-08T13:52:00;22.90;;;5.95;;
44139;SDS011;29803;51.048;4.686;2023-10-08T13:54:31;15.02;;;6.07;;
44139;SDS011;29803;51.048;4.686;2023-10-08T13:57:05;17.42;;;6.57;;
44139;SDS011;29803;51.048;4.686;2023-10-08T13:59:38;14.65;;;5.97;;
44139;SDS011;29803;51.048;4.686;2023-10-08T14:02:09;14.23;;;5.90;;
44139;SDS011;29803;51.048;4.686;2023-10-08T14:04:44;19.23;;;6.55;;
44139;SDS011;29803;51.048;4.686;2023-10-08T14:07:15;14.02;;;5.85;;
44139;SDS011;29803;51.048;4.686;2023-10-08T14:09:46;16.02;;;7.20;;
44139;SDS011;29803;51.048;4.686;2023-10-08T14:12:17;14.27;;;6.60;;
44139;SDS011;29803;51.048;4.686;2023-10-08T14:14:47;17.50;;;6.25;;
44139;SDS011;29803;51.048;4.686;2023-10-08T14:17:19;21.30;;;6.70;;
44139;SDS011;29803;51.048;4.686;2023-10-08T14:20:09;18.15;;;7.35;;
44139;SDS011;29803;51.048;4.686;2023-10-08T14:22:51;19.17;;;6.32;;
44139;SDS011;29803;51.048;4.686;2023-10-08T14:25:27;20.08;;;6.53;;
44139;SDS011;29803;51.048;4.686;2023-10-08T14:27:59;17.35;;;6.70;;
44139;SDS011;29803;51.048;4.686;2023-10-08T14:30:34;15.10;;;6.10;;
44139;SDS011;29803;51.048;4.686;2023-10-08T14:33:11;18.52;;;6.35;;
44139;SDS011;29803;51.048;4.686;2023-10-08T14:35:53;12.90;;;5.53;;
44139;SDS011;29803;51.048;4.686;2023-10-08T14:38:42;18.08;;;5.97;;
44139;SDS011;29803;51.048;4.686;2023-10-08T14:41:31;13.23;;;5.60;;
44139;SDS011;29803;51.048;4.686;2023-10-08T14:44:20;15.07;;;6.00;;
44139;SDS011;29803;51.048;4.686;2023-10-08T14:46:50;17.38;;;6.43;;
44139;SDS011;29803;51.048;4.686;2023-10-08T14:49:21;16.50;;;6.60;;
44139;SDS011;29803;51.048;4.686;2023-10-08T14:51:52;16.60;;;6.07;;
44139;SDS011;29803;51.048;4.686;2023-10-08T14:54:25;15.70;;;5.78;;
44139;SDS011;29803;51.048;4.686;2023-10-08T14:56:55;12.45;;;5.68;;
44139;SDS011;29803;51.048;4.686;2023-10-08T14:59:27;18.38;;;5.68;;
44139;SDS011;29803;51.048;4.686;2023-10-08T15:02:00;14.77;;;5.85;;
44139;SDS011;29803;51.048;4.686;2023-10-08T15:04:31;15.88;;;5.95;;
44139;SDS011;29803;51.048;4.686;2023-10-08T15:07:02;15.90;;;5.97;;
44139;SDS011;29803;51.048;4.686;2023-10-08T15:09:33;13.20;;;5.80;;
44139;SDS011;29803;51.048;4.686;2023-10-08T15:12:03;17.30;;;5.80;;
44139;SDS011;29803;51.048;4.686;2023-10-08T15:14:36;13.85;;;5.82;;
44139;SDS011;29803;51.048;4.686;2023-10-08T15:17:08;17.02;;;6.15;;
44139;SDS011;29803;51.048;4.686;2023-10-08T15:19:39;17.48;;;6.32;;
44139;SDS011;29803;51.048;4.686;2023-10-08T15:22:10;11.57;;;5.18;;
44139;SDS011;29803;51.048;4.686;2023-10-08T15:24:40;15.95;;;5.35;;
44139;SDS011;29803;51.048;4.686;2023-10-08T15:27:13;12.68;;;5.85;;
44139;SDS011;29803;51.048;4.686;2023-10-08T15:29:43;17.20;;;5.95;;
44139;SDS011;29803;51.048;4.686;2023-10-08T15:32:14;22.58;;;5.95;;
44139;SDS011;29803;51.048;4.686;2023-10-08T15:34:44;18.45;;;6.65;;